DRZD weather

Dirkou Airport
Agadez Region, Niger

Public forecast

Using degrees Celsius for public forecast. Weather courtesy of forecast.io.

METAR (pilot weather report)

Report is more than 2 hours old.

Closest report is Faya Largeau Airport, 361.1 nm (668.7 km) E. Retrieved 2019/04/22 15:00 UTC (3 hours ago):

FTTY 221500Z 04008KT CAVOK 36/10 Q1010

TAF (pilot weather forecast)

Closest forecast is Mano Dayak International Airport, 302.9 nm (561.0 km) WSW. Retrieved 2019/04/22 18:30 UTC (0 seconds ago):

TAF DRZA 221700Z 2218/2318 12010KT 4000 DU NSC TEMPO 2308/2314 12020KT 0800 BLDU